createdAt,value
2022-10-20T00:04:43.695Z,96706.88
2022-10-20T00:09:46.257Z,96708.69
2022-10-20T00:14:50.450Z,96699.97
2022-10-20T00:19:53.029Z,96698.22
2022-10-20T00:24:55.670Z,96677.19
2022-10-20T00:29:59.602Z,96681.56
2022-10-20T00:35:02.181Z,96682.50
2022-10-20T00:40:05.318Z,96658.03
2022-10-20T00:45:14.643Z,96652.78
2022-10-20T00:50:19.085Z,96646.72
2022-10-20T00:55:23.790Z,96658.94
2022-10-20T01:00:27.963Z,96636.25
2022-10-20T01:05:30.674Z,96628.41
2022-10-20T01:10:38.562Z,96604.84
2022-10-20T01:15:45.187Z,96609.22
2022-10-20T01:21:06.534Z,96604.91
2022-10-20T01:26:23.472Z,96607.50
2022-10-20T01:31:30.593Z,96591.78
2022-10-20T01:36:36.090Z,96585.69
2022-10-20T01:41:43.016Z,96552.53
2022-10-20T01:46:47.771Z,96535.06
2022-10-20T01:51:50.348Z,96530.75
2022-10-20T01:57:03.531Z,96534.25
2022-10-20T02:02:17.180Z,96512.38
2022-10-20T02:07:26.089Z,96523.78
2022-10-20T02:12:30.811Z,96526.41
2022-10-20T02:17:36.373Z,96524.66
2022-10-20T02:22:39.410Z,96531.59
2022-10-20T02:27:44.555Z,96536.84
2022-10-20T02:32:50.127Z,96534.25
2022-10-20T02:37:53.235Z,96517.72
2022-10-20T02:42:55.836Z,96519.44
2022-10-20T02:47:59.742Z,96510.69
2022-10-20T02:53:02.334Z,96524.69
2022-10-20T02:58:04.919Z,96518.59
2022-10-20T03:03:08.851Z,96510.75
2022-10-20T03:08:11.534Z,96515.09
2022-10-20T03:13:15.598Z,96503.75
2022-10-20T03:18:19.531Z,96516.84
2022-10-20T03:23:22.307Z,96519.47
2022-10-20T03:28:24.949Z,96518.59
2022-10-20T03:33:28.903Z,96522.13
2022-10-20T03:38:31.548Z,96527.31
2022-10-20T03:43:34.159Z,96529.09
2022-10-20T03:48:39.111Z,96542.22
2022-10-20T03:53:42.047Z,96536.13
2022-10-20T03:58:44.661Z,96552.72
2022-10-20T04:03:48.650Z,96571.03
2022-10-20T04:08:51.617Z,96617.31
2022-10-20T04:13:54.486Z,96641.75
2022-10-20T04:18:58.432Z,96643.50
2022-10-20T04:24:01.016Z,96648.72
2022-10-20T04:29:03.615Z,96656.59
2022-10-20T04:34:07.506Z,96650.47
2022-10-20T04:39:10.149Z,96652.22
2022-10-20T04:44:12.759Z,96638.28
2022-10-20T04:49:16.694Z,96623.44
2022-10-20T04:54:19.328Z,96606.00
2022-10-20T04:59:22.207Z,96621.69
2022-10-20T05:04:26.296Z,96605.16
2022-10-20T05:09:30.028Z,96623.50
2022-10-20T05:14:32.602Z,96607.78
2022-10-20T05:19:36.524Z,96608.69
2022-10-20T05:24:39.129Z,96600.81
2022-10-20T05:29:41.705Z,96585.94
2022-10-20T05:34:45.700Z,96577.25
2022-10-20T05:44:56.143Z,96572.03
2022-10-20T05:50:00.052Z,96570.28
2022-10-20T05:55:02.652Z,96570.28
2022-10-20T06:00:06.273Z,96554.59
2022-10-20T06:05:15.588Z,96555.44
2022-10-20T06:10:18.362Z,96545.00
2022-10-20T06:15:20.955Z,96545.81
2022-10-20T06:20:24.867Z,96524.81
2022-10-20T06:25:27.484Z,96545.78
2022-10-20T06:30:30.795Z,96561.41
2022-10-20T06:35:34.742Z,96538.63
2022-10-20T06:40:37.306Z,96540.38
2022-10-20T06:45:39.899Z,96527.28
2022-10-20T06:50:43.814Z,96483.41
2022-10-20T06:55:46.406Z,96483.38
2022-10-20T07:00:49.023Z,96427.19
2022-10-20T07:05:53.040Z,96357.78
2022-10-20T07:11:00.809Z,96278.84
2022-10-20T07:16:04.378Z,96303.28
2022-10-20T07:21:10.021Z,96319.00
2022-10-20T07:26:14.597Z,96333.91
2022-10-20T07:31:18.936Z,96343.47
2022-10-20T07:36:24.725Z,96362.81
2022-10-20T07:41:28.210Z,96260.59
2022-10-20T07:46:30.820Z,96272.91
2022-10-20T07:51:34.883Z,96216.28
2022-10-20T07:56:39.913Z,96276.22
2022-10-20T08:01:42.699Z,96247.13
2022-10-20T08:06:47.132Z,96214.38
2022-10-20T08:11:52.823Z,96215.97
2022-10-20T08:16:59.961Z,96175.22
2022-10-20T08:22:03.870Z,96152.03
2022-10-20T08:27:06.455Z,96122.88
2022-10-20T08:32:09.482Z,96067.09
2022-10-20T08:37:13.440Z,96027.34
2022-10-20T08:42:16.197Z,96014.91
2022-10-20T08:47:27.956Z,95980.25
2022-10-20T08:52:35.034Z,95957.28
2022-10-20T08:57:38.069Z,95891.38
2022-10-20T09:02:41.024Z,95854.84
2022-10-20T09:07:44.965Z,95815.41
2022-10-20T09:12:48.334Z,95775.47
2022-10-20T09:17:52.929Z,95732.56
2022-10-20T09:22:56.893Z,95711.69
2022-10-20T09:27:59.534Z,95664.47
2022-10-20T09:33:03.879Z,95653.53
2022-10-20T09:38:19.920Z,95643.94
2022-10-20T09:43:22.568Z,95657.28
2022-10-20T09:48:27.374Z,95545.69
2022-10-20T09:53:34.233Z,95476.47
2022-10-20T09:58:39.035Z,95418.81
2022-10-20T10:03:44.798Z,95404.53
2022-10-20T10:08:48.900Z,95395.88
2022-10-20T10:13:52.845Z,95410.78
2022-10-20T10:18:57.779Z,95389.06
2022-10-20T10:24:03.503Z,95349.56
2022-10-20T10:29:06.795Z,95338.50
2022-10-20T10:34:31.864Z,95225.09
2022-10-20T10:39:37.091Z,95176.00
2022-10-20T10:44:49.251Z,95173.69
2022-10-20T10:49:59.610Z,95115.34
2022-10-20T10:55:21.262Z,95074.81
2022-10-20T11:00:41.036Z,95052.84
2022-10-20T11:05:56.370Z,95060.44
2022-10-20T11:11:06.260Z,95029.94
2022-10-20T11:16:22.337Z,95020.50
2022-10-20T11:21:30.308Z,94971.88
2022-10-20T11:26:35.799Z,94954.44
2022-10-20T11:31:42.223Z,94971.00
2022-10-20T11:36:46.026Z,94982.28
2022-10-20T11:41:53.961Z,94884.28
2022-10-20T11:46:59.396Z,94926.66
2022-10-20T11:52:12.708Z,94971.19
2022-10-20T11:57:21.715Z,95045.28
2022-10-20T12:03:02.054Z,95085.31
2022-10-20T12:08:35.689Z,95120.22
2022-10-20T12:13:48.696Z,95166.38
2022-10-20T12:19:07.292Z,95214.25
2022-10-20T12:24:31.247Z,95209.72
2022-10-20T12:29:58.028Z,95224.59
2022-10-20T12:35:01.844Z,95219.22
2022-10-20T12:40:20.494Z,95166.59
2022-10-20T12:45:30.900Z,95101.53
2022-10-20T12:50:36.258Z,95069.00
2022-10-20T12:55:41.925Z,94996.09
2022-10-20T13:01:08.599Z,94939.28
2022-10-20T13:06:43.588Z,94918.28
2022-10-20T13:11:55.356Z,94894.75
2022-10-20T13:17:07.079Z,94830.88
2022-10-20T13:22:46.744Z,94791.53
2022-10-20T13:27:50.783Z,94751.56
2022-10-20T13:33:25.221Z,94720.09
2022-10-20T13:38:29.220Z,94674.47
2022-10-20T13:43:37.287Z,94622.31
2022-10-20T13:48:54.278Z,94573.19
2022-10-20T13:53:59.512Z,94568.53
2022-10-20T13:59:05.902Z,94538.78
2022-10-20T14:04:25.817Z,94529.34
2022-10-20T14:09:28.418Z,94461.34
2022-10-20T14:14:31.748Z,94387.56
2022-10-20T14:19:36.299Z,94355.81
2022-10-20T14:24:41.619Z,94395.16
2022-10-20T14:29:44.955Z,94492.84
2022-10-20T14:34:57.009Z,94592.94
2022-10-20T14:40:01.469Z,94532.16
2022-10-20T14:45:04.928Z,94528.56
2022-10-20T14:50:21.148Z,94568.50
2022-10-20T14:55:37.991Z,94626.00
2022-10-20T15:00:41.243Z,94661.69
2022-10-20T15:05:48.179Z,94851.59
2022-10-20T15:10:50.859Z,94869.06
2022-10-20T15:15:53.805Z,94936.44
2022-10-20T15:20:57.963Z,95031.38
2022-10-20T15:26:03.473Z,95092.31
2022-10-20T15:31:08.236Z,95100.25
2022-10-20T15:36:15.535Z,95140.97
2022-10-20T15:41:20.799Z,95099.53
2022-10-20T15:46:23.639Z,95036.84
2022-10-20T15:51:29.146Z,95028.28
2022-10-20T15:56:32.815Z,95020.09
2022-10-20T16:01:36.162Z,94937.44
2022-10-20T16:06:40.175Z,94893.97
2022-10-20T16:11:42.793Z,94815.78
2022-10-20T16:16:45.735Z,94795.88
2022-10-20T16:21:49.703Z,94718.53
2022-10-20T16:26:52.770Z,94698.72
2022-10-20T16:31:55.547Z,94660.31
2022-10-20T16:36:59.480Z,94641.53
2022-10-20T16:42:02.091Z,94607.56
2022-10-20T16:47:04.694Z,94591.06
2022-10-20T16:52:08.649Z,94613.03
2022-10-20T16:57:12.687Z,94586.44
2022-10-20T17:02:15.254Z,94597.38
2022-10-20T17:07:19.298Z,94634.66
2022-10-20T17:12:21.948Z,94618.69
2022-10-20T17:17:24.592Z,94602.84
2022-10-20T17:22:28.519Z,94602.16
2022-10-20T17:27:31.383Z,94602.44
2022-10-20T17:32:34.058Z,93823.47
2022-10-20T17:37:38.074Z,93904.41
2022-10-20T17:42:40.814Z,93921.59
2022-10-20T17:47:43.539Z,93960.31
2022-10-20T17:52:47.528Z,93958.50
2022-10-20T17:57:51.281Z,93951.03
2022-10-20T18:02:53.873Z,93938.91
2022-10-20T18:07:57.865Z,93927.81
2022-10-20T18:13:00.458Z,93929.09
2022-10-20T18:18:03.112Z,93917.88
2022-10-20T18:23:07.122Z,93944.78
2022-10-20T18:28:09.736Z,93957.31
2022-10-20T18:33:12.590Z,93962.13
2022-10-20T18:38:16.990Z,93977.19
2022-10-20T18:43:19.591Z,93976.34
2022-10-20T18:48:22.187Z,93980.88
2022-10-20T18:53:26.523Z,93992.38
2022-10-20T18:58:29.993Z,93998.75
2022-10-20T19:03:33.177Z,93998.03
2022-10-20T19:08:38.675Z,93988.63
2022-10-20T19:13:41.436Z,94010.78
2022-10-20T19:18:45.858Z,94032.22
2022-10-20T19:23:51.352Z,94018.22
2022-10-20T19:28:58.682Z,94049.28
2022-10-20T19:34:03.299Z,94076.75
2022-10-20T19:39:09.670Z,94094.53
2022-10-20T19:44:12.996Z,94065.03
2022-10-20T19:49:15.666Z,94089.41
2022-10-20T19:54:19.674Z,94027.47
2022-10-20T19:59:22.306Z,93994.59
2022-10-20T20:04:24.918Z,93953.19
2022-10-20T20:09:29.916Z,93921.50
2022-10-20T20:14:32.559Z,93973.34
2022-10-20T20:19:35.139Z,93975.91
2022-10-20T20:24:39.503Z,94007.06
2022-10-20T20:29:42.082Z,94031.31
2022-10-20T20:34:44.772Z,93935.75
2022-10-20T20:39:48.778Z,93921.38
2022-10-20T20:44:52.946Z,93890.47
2022-10-20T20:49:56.375Z,93840.31
2022-10-20T20:55:00.300Z,93778.19
2022-10-20T21:00:02.947Z,93804.50
2022-10-20T21:05:06.340Z,93852.00
2022-10-20T21:10:10.818Z,93901.59
2022-10-20T21:15:13.416Z,93965.13
2022-10-20T21:20:16.155Z,93958.91
2022-10-20T21:25:20.076Z,93955.53
2022-10-20T21:30:22.735Z,93946.81
2022-10-20T21:35:25.327Z,93943.31
2022-10-20T21:40:29.257Z,93999.34
2022-10-20T21:45:31.848Z,93951.41
2022-10-20T21:50:37.150Z,93960.06
2022-10-20T21:55:41.049Z,93986.38
2022-10-20T22:00:43.651Z,94024.16
2022-10-20T22:05:46.258Z,94068.25
2022-10-20T22:10:50.171Z,94111.38
2022-10-20T22:15:52.768Z,94222.69
2022-10-20T22:20:55.335Z,94450.84
2022-10-20T22:25:59.556Z,94819.47
2022-10-20T22:36:09.655Z,96002.25
2022-10-20T22:41:14.124Z,96743.25
2022-10-20T22:46:16.774Z,96624.81
2022-10-20T22:51:19.441Z,96919.84
2022-10-20T22:56:23.777Z,97327.09
2022-10-20T23:01:26.427Z,98038.41
2022-10-20T23:06:29.046Z,98587.44
2022-10-20T23:11:32.938Z,98861.59
2022-10-20T23:16:35.525Z,98904.56
2022-10-20T23:21:38.091Z,98880.22
2022-10-20T23:26:42.553Z,98945.38
2022-10-20T23:31:45.130Z,97701.00
2022-10-20T23:36:47.719Z,97594.56
2022-10-20T23:41:51.663Z,97884.63
2022-10-20T23:46:54.237Z,98140.44
2022-10-20T23:51:56.883Z,98398.81
2022-10-20T23:57:02.415Z,98871.78
